createdAt,value
2018-03-25T00:00:53.283Z,950.78
2018-03-25T00:01:53.277Z,950.76
2018-03-25T00:02:53.271Z,950.78
2018-03-25T00:03:53.261Z,950.79
2018-03-25T00:04:53.253Z,950.78
2018-03-25T00:05:53.247Z,950.77
2018-03-25T00:06:53.241Z,950.78
2018-03-25T00:07:53.231Z,950.77
2018-03-25T00:08:53.227Z,950.78
2018-03-25T00:09:53.218Z,950.68
2018-03-25T00:10:53.210Z,950.75
2018-03-25T00:11:53.203Z,950.74
2018-03-25T00:12:53.194Z,950.77
2018-03-25T00:13:53.187Z,950.76
2018-03-25T00:14:53.180Z,950.75
2018-03-25T00:15:53.172Z,950.78
2018-03-25T00:16:53.164Z,950.80
2018-03-25T00:17:53.157Z,950.80
2018-03-25T00:18:53.153Z,950.80
2018-03-25T00:19:53.146Z,950.79
2018-03-25T00:20:53.140Z,950.82
2018-03-25T00:21:53.129Z,950.84
2018-03-25T00:22:53.120Z,950.86
2018-03-25T00:23:53.119Z,950.83
2018-03-25T00:24:53.109Z,950.88
2018-03-25T00:25:53.097Z,950.88
2018-03-25T00:26:53.091Z,950.88
2018-03-25T00:27:53.083Z,950.90
2018-03-25T00:28:53.078Z,950.92
2018-03-25T00:29:53.065Z,950.89
2018-03-25T00:30:53.061Z,950.93
2018-03-25T00:31:53.053Z,950.91
2018-03-25T00:32:53.064Z,950.92
2018-03-25T00:33:53.037Z,950.95
2018-03-25T00:34:53.038Z,950.89
2018-03-25T00:35:53.024Z,950.94
2018-03-25T00:36:53.016Z,950.91
2018-03-25T00:37:53.008Z,950.94
2018-03-25T00:38:52.997Z,950.91
2018-03-25T00:39:52.993Z,950.91
2018-03-25T00:40:52.989Z,950.90
2018-03-25T00:41:52.977Z,950.91
2018-03-25T00:42:52.969Z,950.90
2018-03-25T00:43:52.964Z,950.87
2018-03-25T00:44:52.956Z,950.88
2018-03-25T00:45:52.944Z,950.91
2018-03-25T00:46:52.940Z,950.93
2018-03-25T00:47:52.932Z,950.95
2018-03-25T00:48:52.923Z,950.94
2018-03-25T00:49:52.925Z,950.93
2018-03-25T00:50:52.910Z,950.92
2018-03-25T00:51:52.901Z,950.90
2018-03-25T00:52:52.896Z,950.90
2018-03-25T00:53:52.886Z,950.89
2018-03-25T00:54:52.878Z,950.88
2018-03-25T00:55:52.871Z,950.92
2018-03-25T00:56:52.863Z,950.95
2018-03-25T00:57:52.852Z,950.91
2018-03-25T00:58:52.848Z,950.94
2018-03-25T00:59:52.842Z,950.94
2018-03-25T01:00:52.833Z,950.95
2018-03-25T01:01:52.825Z,950.88
2018-03-25T01:02:52.819Z,950.92
2018-03-25T01:03:52.814Z,950.71
2018-03-25T01:04:52.806Z,950.91
2018-03-25T01:05:52.796Z,950.93
2018-03-25T01:06:52.788Z,950.91
2018-03-25T01:07:52.780Z,950.90
2018-03-25T01:08:52.770Z,950.87
2018-03-25T01:09:52.768Z,950.93
2018-03-25T01:10:52.758Z,950.94
2018-03-25T01:11:52.752Z,950.89
2018-03-25T01:12:52.746Z,950.90
2018-03-25T01:13:52.736Z,950.92
2018-03-25T01:14:52.727Z,950.91
2018-03-25T01:15:52.721Z,950.86
2018-03-25T01:16:52.714Z,950.85
2018-03-25T01:17:52.705Z,950.84
2018-03-25T01:18:52.697Z,950.84
2018-03-25T01:19:52.691Z,950.81
2018-03-25T01:20:52.684Z,950.78
2018-03-25T01:21:52.672Z,950.76
2018-03-25T01:22:52.665Z,950.76
2018-03-25T01:23:52.664Z,950.79
2018-03-25T01:24:52.651Z,950.76
2018-03-25T01:25:52.646Z,950.75
2018-03-25T01:26:52.641Z,950.80
2018-03-25T01:27:52.628Z,950.78
2018-03-25T01:28:52.620Z,950.80
2018-03-25T01:29:52.612Z,950.78
2018-03-25T01:30:52.602Z,950.77
2018-03-25T01:31:52.599Z,950.77
2018-03-25T01:32:52.589Z,950.77
2018-03-25T01:33:52.579Z,950.74
2018-03-25T01:34:52.574Z,950.78
2018-03-25T01:35:52.566Z,950.76
2018-03-25T01:36:52.556Z,950.76
2018-03-25T01:37:52.549Z,950.75
2018-03-25T01:38:52.545Z,950.80
2018-03-25T01:39:52.536Z,950.77
2018-03-25T01:40:52.525Z,950.76
2018-03-25T01:41:52.523Z,950.81
2018-03-25T01:42:52.512Z,950.82
2018-03-25T01:43:52.504Z,950.83
2018-03-25T01:44:52.495Z,950.84
2018-03-25T01:45:52.489Z,950.78
2018-03-25T01:46:52.480Z,950.79
2018-03-25T01:47:52.472Z,950.79
2018-03-25T01:48:52.464Z,950.81
2018-03-25T01:49:52.455Z,950.80
2018-03-25T01:50:52.444Z,950.81
2018-03-25T01:51:52.440Z,950.79
2018-03-25T01:52:52.432Z,950.82
2018-03-25T01:53:52.426Z,950.80
2018-03-25T01:54:52.417Z,950.78
2018-03-25T01:55:52.408Z,950.82
2018-03-25T01:56:52.400Z,950.83
2018-03-25T01:57:52.393Z,950.77
2018-03-25T01:58:52.387Z,950.82
2018-03-25T01:59:52.376Z,950.81
2018-03-25T02:00:52.369Z,950.80
2018-03-25T02:01:52.363Z,950.84
2018-03-25T02:02:52.352Z,950.79
2018-03-25T02:03:52.344Z,950.84
2018-03-25T02:04:52.342Z,950.83
2018-03-25T02:05:52.326Z,950.87
2018-03-25T02:06:52.324Z,950.85
2018-03-25T02:07:52.313Z,950.88
2018-03-25T02:08:52.337Z,950.88
2018-03-25T02:09:52.296Z,950.87
2018-03-25T02:10:52.290Z,950.85
2018-03-25T02:11:52.281Z,950.84
2018-03-25T02:12:52.273Z,950.86
2018-03-25T02:13:52.263Z,950.81
2018-03-25T02:14:52.256Z,950.86
2018-03-25T02:15:52.248Z,950.83
2018-03-25T02:16:52.241Z,950.82
2018-03-25T02:17:52.232Z,950.84
2018-03-25T02:18:52.226Z,950.85
2018-03-25T02:19:52.216Z,950.85
2018-03-25T02:20:52.207Z,950.79
2018-03-25T02:21:52.198Z,950.82
2018-03-25T02:22:52.200Z,950.78
2018-03-25T02:23:52.193Z,950.82
2018-03-25T02:24:52.178Z,950.78
2018-03-25T02:25:52.171Z,950.76
2018-03-25T02:26:52.163Z,950.76
2018-03-25T02:27:52.154Z,950.79
2018-03-25T02:28:52.144Z,950.76
2018-03-25T02:29:52.138Z,950.77
2018-03-25T02:30:52.130Z,950.75
2018-03-25T02:31:52.120Z,950.76
2018-03-25T02:32:52.116Z,950.74
2018-03-25T02:33:52.104Z,950.76
2018-03-25T02:34:52.097Z,950.80
2018-03-25T02:35:52.086Z,950.78
2018-03-25T02:36:52.079Z,950.75
2018-03-25T02:37:52.072Z,950.80
2018-03-25T02:38:52.065Z,950.79
2018-03-25T02:39:52.059Z,950.75
2018-03-25T02:40:52.048Z,950.81
2018-03-25T02:41:52.048Z,950.80
2018-03-25T02:42:52.032Z,950.81
2018-03-25T02:43:52.025Z,950.83
2018-03-25T02:44:52.015Z,950.82
2018-03-25T02:45:52.012Z,950.85
2018-03-25T02:46:52.003Z,950.85
2018-03-25T02:47:51.992Z,950.87
2018-03-25T02:48:51.982Z,950.89
2018-03-25T02:49:51.983Z,950.87
2018-03-25T02:50:51.971Z,950.84
2018-03-25T02:51:51.962Z,950.89
2018-03-25T02:52:51.947Z,950.85
2018-03-25T02:53:51.940Z,950.87
2018-03-25T02:54:51.936Z,950.86
2018-03-25T02:55:51.927Z,950.79
2018-03-25T02:56:51.924Z,950.87
2018-03-25T02:57:51.911Z,950.86
2018-03-25T02:58:51.902Z,950.92
2018-03-25T02:59:51.893Z,950.90
2018-03-25T03:00:51.885Z,950.90
2018-03-25T03:01:51.878Z,950.89
2018-03-25T03:02:51.871Z,950.89
2018-03-25T03:03:51.862Z,950.90
2018-03-25T03:04:51.853Z,950.86
2018-03-25T03:05:51.847Z,950.87
2018-03-25T03:06:51.835Z,950.90
2018-03-25T03:07:51.830Z,950.88
2018-03-25T03:08:51.818Z,950.87
2018-03-25T03:09:51.815Z,950.89
2018-03-25T03:10:51.802Z,950.91
2018-03-25T03:11:51.795Z,950.89
2018-03-25T03:12:51.790Z,950.88
2018-03-25T03:13:51.776Z,950.88
2018-03-25T03:14:51.772Z,950.88
2018-03-25T03:15:51.763Z,950.89
2018-03-25T03:16:51.752Z,950.88
2018-03-25T03:17:51.745Z,950.84
2018-03-25T03:18:51.738Z,950.87
2018-03-25T03:19:51.729Z,950.85
2018-03-25T03:20:51.722Z,950.82
2018-03-25T03:21:51.713Z,950.82
2018-03-25T03:22:51.705Z,950.83
2018-03-25T03:23:51.695Z,950.81
2018-03-25T03:24:51.686Z,950.87
2018-03-25T03:25:51.680Z,950.86
2018-03-25T03:26:51.673Z,950.88
2018-03-25T03:27:51.663Z,950.84
2018-03-25T03:28:51.652Z,950.89
2018-03-25T03:29:51.648Z,950.86
2018-03-25T03:30:51.638Z,950.86
2018-03-25T03:31:51.630Z,950.88
2018-03-25T03:32:51.620Z,950.86
2018-03-25T03:33:51.612Z,950.87
2018-03-25T03:34:51.605Z,950.85
2018-03-25T03:35:51.596Z,950.89
2018-03-25T03:36:51.588Z,950.84
2018-03-25T03:37:51.591Z,950.84
2018-03-25T03:38:51.573Z,950.83
2018-03-25T03:39:51.579Z,950.86
2018-03-25T03:40:51.553Z,950.86
2018-03-25T03:41:51.554Z,950.83
2018-03-25T03:42:51.536Z,950.85
2018-03-25T03:43:51.529Z,950.90
2018-03-25T03:44:51.522Z,950.91
2018-03-25T03:45:51.512Z,950.84
2018-03-25T03:46:51.504Z,950.90
2018-03-25T03:47:51.498Z,950.93
2018-03-25T03:48:51.488Z,950.91
2018-03-25T03:49:51.481Z,950.93
2018-03-25T03:50:51.470Z,950.92
2018-03-25T03:51:51.462Z,950.94
2018-03-25T03:52:51.454Z,950.89
2018-03-25T03:53:51.445Z,950.90
2018-03-25T03:54:51.444Z,950.91
2018-03-25T03:55:51.427Z,950.91
2018-03-25T03:56:51.420Z,950.92
2018-03-25T03:57:51.412Z,950.96
2018-03-25T03:58:51.402Z,950.97
2018-03-25T03:59:51.402Z,950.98
2018-03-25T04:00:51.384Z,950.92
2018-03-25T04:01:51.376Z,950.96
2018-03-25T04:02:51.379Z,950.97
2018-03-25T04:03:51.360Z,951.02
2018-03-25T04:04:51.353Z,950.98
2018-03-25T04:05:51.343Z,951.01
2018-03-25T04:06:51.339Z,950.99
2018-03-25T04:07:51.337Z,951.00
2018-03-25T04:08:51.323Z,951.00
2018-03-25T04:09:51.313Z,951.00
2018-03-25T04:10:51.302Z,950.97
2018-03-25T04:11:51.292Z,951.00
2018-03-25T04:12:51.285Z,951.03
2018-03-25T04:13:51.276Z,951.02
2018-03-25T04:14:51.268Z,951.04
2018-03-25T04:15:51.263Z,951.03
2018-03-25T04:16:51.253Z,951.03
2018-03-25T04:17:51.242Z,951.04
2018-03-25T04:18:51.235Z,951.04
2018-03-25T04:19:51.228Z,951.05
2018-03-25T04:20:51.217Z,951.06
2018-03-25T04:21:51.208Z,951.03
2018-03-25T04:22:51.200Z,951.09
2018-03-25T04:23:51.193Z,951.06
2018-03-25T04:24:51.181Z,951.08
2018-03-25T04:25:51.177Z,951.09
2018-03-25T04:26:51.167Z,951.08
2018-03-25T04:27:51.160Z,951.10
2018-03-25T04:28:51.150Z,951.12
2018-03-25T04:29:51.141Z,951.10
2018-03-25T04:30:51.134Z,951.11
2018-03-25T04:31:51.124Z,951.14
2018-03-25T04:32:51.119Z,951.10
2018-03-25T04:33:51.107Z,951.08
2018-03-25T04:34:51.100Z,951.09
2018-03-25T04:35:51.093Z,951.12
2018-03-25T04:36:51.085Z,951.13
2018-03-25T04:37:51.072Z,951.13
2018-03-25T04:38:51.068Z,951.16
2018-03-25T04:39:51.063Z,951.12
2018-03-25T04:40:51.048Z,951.15
2018-03-25T04:41:51.041Z,951.11
2018-03-25T04:42:51.032Z,951.14
2018-03-25T04:43:51.024Z,951.12
2018-03-25T04:44:51.015Z,951.14
2018-03-25T04:45:51.008Z,951.14
2018-03-25T04:46:50.999Z,951.14
2018-03-25T04:47:51.013Z,951.14
2018-03-25T04:48:50.981Z,951.14
2018-03-25T04:49:50.975Z,951.11
2018-03-25T04:50:50.965Z,951.16
2018-03-25T04:51:50.956Z,951.16
2018-03-25T04:52:50.949Z,951.15
2018-03-25T04:53:50.941Z,951.17
2018-03-25T04:54:50.931Z,951.21
2018-03-25T04:55:50.922Z,951.16
2018-03-25T04:56:50.915Z,951.17
2018-03-25T04:57:50.907Z,951.19
2018-03-25T04:58:50.900Z,951.20
2018-03-25T04:59:50.894Z,951.19
2018-03-25T05:00:50.880Z,951.18
2018-03-25T05:01:50.872Z,951.22
2018-03-25T05:02:50.865Z,951.29
2018-03-25T05:03:50.855Z,951.29
2018-03-25T05:04:50.848Z,951.24
2018-03-25T05:05:50.844Z,951.29
2018-03-25T05:06:50.835Z,951.24
2018-03-25T05:07:50.824Z,951.23
2018-03-25T05:08:50.814Z,951.29
2018-03-25T05:09:50.805Z,951.25
2018-03-25T05:10:50.801Z,951.26
2018-03-25T05:11:50.789Z,951.30
2018-03-25T05:12:50.780Z,951.30
2018-03-25T05:13:50.777Z,951.27
2018-03-25T05:14:50.764Z,951.29
2018-03-25T05:15:50.756Z,951.26
2018-03-25T05:16:50.747Z,951.26
2018-03-25T05:17:50.738Z,951.27
2018-03-25T05:18:50.730Z,951.24
2018-03-25T05:19:50.724Z,951.27
2018-03-25T05:20:50.714Z,951.27
2018-03-25T05:21:50.705Z,951.26
2018-03-25T05:22:50.696Z,951.24
2018-03-25T05:23:50.710Z,951.25
2018-03-25T05:24:50.680Z,951.24
2018-03-25T05:25:50.673Z,951.28
2018-03-25T05:26:50.663Z,951.28
2018-03-25T05:27:50.657Z,951.29
2018-03-25T05:28:50.646Z,951.33
2018-03-25T05:29:50.639Z,951.28
2018-03-25T05:30:50.632Z,951.29
2018-03-25T05:31:50.622Z,951.29
2018-03-25T05:32:50.616Z,951.31
2018-03-25T05:33:50.604Z,951.31
2018-03-25T05:34:50.601Z,951.32
2018-03-25T05:35:50.589Z,951.36
2018-03-25T05:36:50.582Z,951.38
2018-03-25T05:37:50.572Z,951.40
2018-03-25T05:38:50.566Z,951.41
2018-03-25T05:39:50.556Z,951.38
2018-03-25T05:40:50.547Z,951.42
2018-03-25T05:41:50.538Z,951.40
2018-03-25T05:42:50.531Z,951.42
2018-03-25T05:43:50.524Z,951.42
2018-03-25T05:44:50.515Z,951.38
2018-03-25T05:45:50.507Z,951.38
2018-03-25T05:46:50.504Z,951.43
2018-03-25T05:47:50.497Z,951.41
2018-03-25T05:48:50.480Z,951.40
2018-03-25T05:49:50.474Z,951.45
2018-03-25T05:50:50.466Z,951.43
2018-03-25T05:51:50.459Z,951.46
2018-03-25T05:52:50.449Z,951.48
2018-03-25T05:53:50.442Z,951.47
2018-03-25T05:54:50.437Z,951.45
2018-03-25T05:55:50.425Z,951.50
2018-03-25T05:56:50.418Z,951.49
2018-03-25T05:57:50.423Z,951.52
2018-03-25T05:58:50.404Z,951.52
2018-03-25T05:59:50.396Z,951.54
2018-03-25T06:00:50.387Z,951.58
2018-03-25T06:01:50.380Z,951.57
2018-03-25T06:02:50.374Z,951.60
2018-03-25T06:03:50.368Z,951.62
2018-03-25T06:04:50.357Z,951.60
2018-03-25T06:05:50.356Z,951.61
2018-03-25T06:06:50.345Z,951.64
2018-03-25T06:07:50.334Z,951.63
2018-03-25T06:08:50.325Z,951.70
2018-03-25T06:09:50.318Z,951.67
2018-03-25T06:10:50.311Z,951.71
2018-03-25T06:11:50.304Z,951.75
2018-03-25T06:12:50.295Z,951.71
2018-03-25T06:13:50.288Z,951.74
2018-03-25T06:14:50.283Z,951.74
2018-03-25T06:15:50.334Z,951.77
2018-03-25T06:16:50.266Z,951.78
2018-03-25T06:17:50.260Z,951.78
2018-03-25T06:18:50.251Z,951.78
2018-03-25T06:19:50.245Z,951.81
2018-03-25T06:20:50.237Z,951.80
2018-03-25T06:21:50.231Z,951.82
2018-03-25T06:22:50.224Z,951.82
2018-03-25T06:23:50.216Z,951.89
2018-03-25T06:24:50.209Z,951.90
2018-03-25T06:25:50.203Z,951.89
2018-03-25T06:26:50.196Z,951.88
2018-03-25T06:27:50.188Z,951.87
2018-03-25T06:28:50.180Z,951.88
2018-03-25T06:29:50.176Z,951.89
2018-03-25T06:30:50.166Z,951.88
2018-03-25T06:31:50.161Z,951.95
2018-03-25T06:32:50.152Z,951.95
2018-03-25T06:33:50.145Z,951.93
2018-03-25T06:34:50.143Z,951.91
2018-03-25T06:35:50.134Z,951.96
2018-03-25T06:36:50.127Z,951.96
2018-03-25T06:37:50.119Z,951.92
2018-03-25T06:38:50.115Z,951.96
2018-03-25T06:39:50.106Z,951.95
2018-03-25T06:40:50.103Z,951.96
2018-03-25T06:41:50.101Z,951.97
2018-03-25T06:42:50.088Z,952.03
2018-03-25T06:43:50.084Z,951.95
2018-03-25T06:44:50.079Z,951.96
2018-03-25T06:45:50.071Z,951.96
2018-03-25T06:46:50.064Z,951.98
2018-03-25T06:47:50.060Z,952.03
2018-03-25T06:48:50.053Z,952.04
2018-03-25T06:49:50.046Z,952.01
2018-03-25T06:50:50.042Z,952.06
2018-03-25T06:51:50.036Z,952.06
2018-03-25T06:52:50.028Z,952.06
2018-03-25T06:53:50.028Z,952.13
2018-03-25T06:54:50.016Z,952.14
2018-03-25T06:55:50.015Z,952.18
2018-03-25T06:56:50.013Z,952.21
2018-03-25T06:57:50.004Z,952.15
2018-03-25T06:58:50.003Z,952.19
2018-03-25T06:59:49.998Z,952.26
2018-03-25T07:00:49.996Z,952.18
2018-03-25T07:01:49.991Z,952.21
2018-03-25T07:02:49.987Z,952.26
2018-03-25T07:03:49.983Z,952.27
2018-03-25T07:04:49.979Z,952.33
2018-03-25T07:05:49.980Z,952.34
2018-03-25T07:06:49.982Z,952.36
2018-03-25T07:07:50.013Z,952.40
2018-03-25T07:08:49.970Z,952.51
2018-03-25T07:09:49.974Z,952.53
2018-03-25T07:10:49.970Z,952.58
2018-03-25T07:11:49.969Z,952.69
2018-03-25T07:12:49.990Z,952.64
2018-03-25T07:13:49.973Z,952.74
2018-03-25T07:14:49.971Z,952.92
2018-03-25T07:15:49.965Z,952.94
2018-03-25T07:16:49.966Z,952.85
2018-03-25T07:17:49.966Z,952.74
2018-03-25T07:18:49.968Z,952.72
2018-03-25T07:19:49.973Z,952.69
2018-03-25T07:20:49.972Z,952.85
2018-03-25T07:21:49.967Z,952.93
2018-03-25T07:22:49.973Z,952.97
2018-03-25T07:23:49.974Z,952.93
2018-03-25T07:24:49.974Z,952.85
2018-03-25T07:25:49.976Z,952.80
2018-03-25T07:26:49.978Z,952.77
2018-03-25T07:27:49.981Z,952.76
2018-03-25T07:28:49.980Z,952.74
2018-03-25T07:29:49.989Z,952.68
2018-03-25T07:30:49.993Z,952.63
2018-03-25T07:31:49.989Z,952.68
2018-03-25T07:32:49.992Z,952.68
2018-03-25T07:33:50.004Z,952.71
2018-03-25T07:34:50.000Z,952.68
2018-03-25T07:35:50.001Z,952.68
2018-03-25T07:36:50.002Z,952.76
2018-03-25T07:37:50.010Z,952.75
2018-03-25T07:38:50.013Z,952.74
2018-03-25T07:39:50.016Z,952.79
2018-03-25T07:40:50.020Z,952.81
2018-03-25T07:41:50.026Z,952.85
2018-03-25T07:42:50.030Z,952.91
2018-03-25T07:43:50.037Z,952.92
2018-03-25T07:44:50.040Z,952.92
2018-03-25T07:45:50.042Z,952.97
2018-03-25T07:46:50.048Z,952.99
2018-03-25T07:47:50.055Z,953.00
2018-03-25T07:48:50.059Z,952.99
2018-03-25T07:49:50.066Z,953.00
2018-03-25T07:50:50.095Z,952.97
2018-03-25T07:51:50.080Z,953.00
2018-03-25T07:52:50.083Z,953.04
2018-03-25T07:53:50.089Z,953.06
2018-03-25T07:54:50.093Z,953.06
2018-03-25T07:55:50.100Z,953.05
2018-03-25T07:56:50.106Z,953.08
2018-03-25T07:57:50.121Z,953.08
2018-03-25T07:58:50.123Z,953.13
2018-03-25T07:59:50.124Z,953.13
2018-03-25T08:00:50.188Z,953.14
2018-03-25T08:01:50.140Z,953.15
2018-03-25T08:02:50.146Z,953.12
2018-03-25T08:03:50.153Z,953.15
2018-03-25T08:04:50.165Z,953.17
2018-03-25T08:05:50.184Z,953.21
2018-03-25T08:06:50.171Z,953.20
2018-03-25T08:07:50.178Z,953.23
2018-03-25T08:08:50.186Z,953.22
2018-03-25T08:09:50.198Z,953.22
2018-03-25T08:10:50.199Z,953.19
2018-03-25T08:11:50.208Z,953.22
2018-03-25T08:12:50.215Z,953.24
2018-03-25T08:13:50.220Z,953.20
2018-03-25T08:14:50.231Z,953.23
2018-03-25T08:15:50.236Z,953.27
2018-03-25T08:16:50.246Z,953.28
2018-03-25T08:17:50.249Z,953.28
2018-03-25T08:18:50.260Z,953.25
2018-03-25T08:19:50.269Z,953.24
2018-03-25T08:20:50.274Z,953.32
2018-03-25T08:21:50.282Z,953.28
2018-03-25T08:22:50.292Z,953.27
2018-03-25T08:23:50.302Z,953.31
2018-03-25T08:24:50.311Z,953.33
2018-03-25T08:25:50.319Z,953.36
2018-03-25T08:26:50.323Z,953.36
2018-03-25T08:27:50.333Z,953.37
2018-03-25T08:28:50.342Z,953.42
2018-03-25T08:29:50.350Z,953.38
2018-03-25T08:30:50.359Z,953.36
2018-03-25T08:31:50.372Z,953.37
2018-03-25T08:32:50.378Z,953.38
2018-03-25T08:33:50.417Z,953.41
2018-03-25T08:34:50.392Z,953.43
2018-03-25T08:35:50.404Z,953.41
2018-03-25T08:36:50.411Z,953.39
2018-03-25T08:37:50.433Z,953.40
2018-03-25T08:38:50.430Z,953.33
2018-03-25T08:39:50.445Z,953.34
2018-03-25T08:40:50.452Z,953.36
2018-03-25T08:41:50.460Z,953.34
2018-03-25T08:42:50.471Z,953.36
2018-03-25T08:43:50.478Z,953.33
2018-03-25T08:44:50.490Z,953.32
2018-03-25T08:45:50.502Z,953.33
2018-03-25T08:46:50.505Z,953.37
2018-03-25T08:47:50.517Z,953.37
2018-03-25T08:48:50.529Z,953.34
2018-03-25T08:49:50.579Z,953.35
2018-03-25T08:50:50.545Z,953.37
2018-03-25T08:51:50.557Z,953.36
2018-03-25T08:52:50.564Z,953.44
2018-03-25T08:53:50.578Z,953.46
2018-03-25T08:54:50.586Z,953.54
2018-03-25T08:55:50.599Z,953.59
2018-03-25T08:56:50.604Z,953.61
2018-03-25T08:57:50.612Z,953.58
2018-03-25T08:58:50.641Z,953.62
2018-03-25T08:59:50.634Z,953.71
2018-03-25T09:00:50.647Z,953.74
2018-03-25T09:01:50.657Z,953.75
2018-03-25T09:02:50.663Z,953.85
2018-03-25T09:03:50.673Z,953.80
2018-03-25T09:04:50.699Z,953.76
2018-03-25T09:05:50.691Z,953.73
2018-03-25T09:06:50.706Z,953.73
2018-03-25T09:07:51.030Z,953.72
2018-03-25T09:08:50.720Z,953.76
2018-03-25T09:09:50.740Z,953.77
2018-03-25T09:10:50.744Z,953.74
2018-03-25T09:11:50.755Z,953.77
2018-03-25T09:12:50.810Z,953.76
2018-03-25T09:13:50.767Z,953.79
2018-03-25T09:14:50.778Z,953.78
2018-03-25T09:15:50.786Z,953.78
2018-03-25T09:16:50.895Z,953.81
2018-03-25T09:17:50.802Z,953.81
2018-03-25T09:18:50.814Z,953.82
2018-03-25T09:19:50.824Z,953.82
2018-03-25T09:20:50.830Z,953.86
2018-03-25T09:21:51.061Z,953.91
2018-03-25T09:22:50.956Z,953.91
2018-03-25T09:23:50.900Z,953.94
2018-03-25T09:24:51.006Z,953.92
2018-03-25T09:25:50.905Z,953.90
2018-03-25T09:26:50.893Z,953.93
2018-03-25T09:27:51.009Z,953.92
2018-03-25T09:28:51.191Z,953.90
2018-03-25T09:29:50.934Z,953.91
2018-03-25T09:30:50.987Z,953.89
2018-03-25T09:31:52.783Z,953.92
2018-03-25T09:32:51.130Z,953.94
2018-03-25T09:33:51.348Z,953.90
2018-03-25T09:34:52.164Z,953.92
2018-03-25T09:35:51.069Z,953.95
2018-03-25T09:36:51.085Z,953.98
2018-03-25T09:37:54.051Z,953.97
2018-03-25T09:38:51.337Z,953.98
2018-03-25T09:39:51.129Z,954.01
2018-03-25T09:40:51.057Z,954.08
2018-03-25T09:41:51.138Z,954.05
2018-03-25T09:42:51.150Z,954.09
2018-03-25T09:43:51.333Z,954.04
2018-03-25T09:44:51.128Z,954.10
2018-03-25T09:45:51.281Z,954.05
2018-03-25T09:46:51.139Z,954.04
2018-03-25T09:47:51.128Z,954.05
2018-03-25T09:48:51.101Z,954.01
2018-03-25T09:49:51.116Z,954.03
2018-03-25T09:50:51.132Z,954.00
2018-03-25T09:51:51.139Z,953.87
2018-03-25T09:52:51.151Z,953.71
2018-03-25T09:53:51.173Z,953.68
2018-03-25T09:54:51.177Z,953.69
2018-03-25T09:55:51.213Z,953.66
2018-03-25T09:56:51.200Z,953.63
2018-03-25T09:57:51.214Z,953.63
2018-03-25T09:58:51.228Z,953.63
2018-03-25T09:59:51.241Z,953.62
2018-03-25T10:00:51.251Z,953.67
2018-03-25T10:01:51.268Z,953.63
2018-03-25T10:02:51.275Z,953.58
2018-03-25T10:03:51.346Z,953.64
2018-03-25T10:04:51.368Z,953.64
2018-03-25T10:05:51.314Z,953.66
2018-03-25T10:06:51.326Z,953.60
2018-03-25T10:07:51.335Z,953.60
2018-03-25T10:08:51.347Z,953.60
2018-03-25T10:09:51.359Z,953.58
2018-03-25T10:10:51.368Z,953.58
2018-03-25T10:11:51.398Z,953.57
2018-03-25T10:12:51.387Z,953.58
2018-03-25T10:13:51.396Z,953.55
2018-03-25T10:14:51.410Z,953.58
2018-03-25T10:15:51.414Z,953.57
2018-03-25T10:16:51.419Z,953.57
2018-03-25T10:17:51.426Z,953.57
2018-03-25T10:18:51.453Z,953.57
2018-03-25T10:19:51.447Z,953.55
2018-03-25T10:20:51.451Z,953.54
2018-03-25T10:21:51.458Z,953.54
2018-03-25T10:22:51.463Z,953.54
2018-03-25T10:23:51.474Z,953.51
2018-03-25T10:24:51.479Z,953.56
2018-03-25T10:25:51.482Z,953.55
2018-03-25T10:26:51.492Z,953.62
2018-03-25T10:27:51.502Z,953.58
2018-03-25T10:28:51.506Z,953.59
2018-03-25T10:29:51.511Z,953.59
2018-03-25T10:30:51.518Z,953.59
2018-03-25T10:31:51.523Z,953.57
2018-03-25T10:32:51.534Z,953.59
2018-03-25T10:33:51.536Z,953.50
2018-03-25T10:34:51.542Z,953.57
2018-03-25T10:35:51.548Z,953.55
2018-03-25T10:36:51.551Z,953.59
2018-03-25T10:37:51.564Z,953.55
2018-03-25T10:38:51.567Z,953.58
2018-03-25T10:39:51.581Z,953.59
2018-03-25T10:40:51.577Z,953.55
2018-03-25T10:41:51.583Z,953.53
2018-03-25T10:42:51.590Z,953.59
2018-03-25T10:43:51.594Z,953.59
2018-03-25T10:44:51.600Z,953.59
2018-03-25T10:45:51.606Z,953.59
2018-03-25T10:46:51.632Z,953.56
2018-03-25T10:47:51.617Z,953.55
2018-03-25T10:48:51.622Z,953.53
2018-03-25T10:49:51.634Z,953.52
2018-03-25T10:50:51.676Z,953.52
2018-03-25T10:51:51.662Z,953.50
2018-03-25T10:52:51.654Z,953.51
2018-03-25T10:53:51.651Z,953.50
2018-03-25T10:54:51.652Z,953.52
2018-03-25T10:55:51.660Z,953.52
2018-03-25T10:56:51.662Z,953.46
2018-03-25T10:57:51.668Z,953.46
2018-03-25T10:58:51.676Z,953.45
2018-03-25T10:59:51.682Z,953.45
2018-03-25T11:00:51.687Z,953.48
2018-03-25T11:01:51.693Z,953.42
2018-03-25T11:02:51.699Z,953.42
2018-03-25T11:03:51.773Z,953.46
2018-03-25T11:04:51.707Z,953.45
2018-03-25T11:05:51.712Z,953.40
2018-03-25T11:06:51.832Z,953.35
2018-03-25T11:07:51.725Z,953.37
2018-03-25T11:08:51.734Z,953.39
2018-03-25T11:09:51.759Z,953.37
2018-03-25T11:10:51.913Z,953.35
2018-03-25T11:11:51.746Z,953.29
2018-03-25T11:12:51.749Z,953.29
2018-03-25T11:13:51.756Z,953.38
2018-03-25T11:14:51.765Z,953.41
2018-03-25T11:15:51.788Z,953.36
2018-03-25T11:16:51.786Z,953.39
2018-03-25T11:17:51.787Z,953.34
2018-03-25T11:18:51.784Z,953.37
2018-03-25T11:19:51.785Z,953.36
2018-03-25T11:20:51.798Z,953.40
2018-03-25T11:21:51.823Z,953.39
2018-03-25T11:22:51.818Z,953.45
2018-03-25T11:23:51.804Z,953.45
2018-03-25T11:24:51.809Z,953.45
2018-03-25T11:25:51.815Z,953.46
2018-03-25T11:26:51.822Z,953.36
2018-03-25T11:27:51.824Z,953.42
2018-03-25T11:28:51.829Z,953.39
2018-03-25T11:29:51.834Z,953.36
2018-03-25T11:30:51.839Z,953.36
2018-03-25T11:31:51.860Z,953.39
2018-03-25T11:32:51.844Z,953.39
2018-03-25T11:33:51.894Z,953.41
2018-03-25T11:34:51.858Z,953.42
2018-03-25T11:35:51.882Z,953.42
2018-03-25T11:36:51.866Z,953.40
2018-03-25T11:37:51.872Z,953.38
2018-03-25T11:38:51.880Z,953.35
2018-03-25T11:39:51.887Z,953.37
2018-03-25T11:40:51.883Z,953.30
2018-03-25T11:41:51.911Z,953.39
2018-03-25T11:42:51.899Z,953.36
2018-03-25T11:43:51.901Z,953.43
2018-03-25T11:44:51.933Z,953.43
2018-03-25T11:45:51.908Z,953.41
2018-03-25T11:46:51.913Z,953.38
2018-03-25T11:47:51.914Z,953.37
2018-03-25T11:48:51.918Z,953.35
2018-03-25T11:49:51.929Z,953.42
2018-03-25T11:50:51.933Z,953.40
2018-03-25T11:51:51.930Z,953.40
2018-03-25T11:52:51.940Z,953.45
2018-03-25T11:53:54.814Z,953.41
2018-03-25T11:54:51.946Z,953.42
2018-03-25T11:55:51.953Z,953.41
2018-03-25T11:56:51.952Z,953.40
2018-03-25T11:57:51.959Z,953.38
2018-03-25T11:58:51.964Z,953.44
2018-03-25T11:59:51.967Z,953.41
2018-03-25T12:00:51.968Z,953.44
2018-03-25T12:01:51.973Z,953.42
2018-03-25T12:02:52.062Z,953.44
2018-03-25T12:03:52.013Z,953.43
2018-03-25T12:04:51.983Z,953.45
2018-03-25T12:05:51.987Z,953.39
2018-03-25T12:06:52.004Z,953.40
2018-03-25T12:07:51.997Z,953.40
2018-03-25T12:08:51.999Z,953.45
2018-03-25T12:09:52.018Z,953.43
2018-03-25T12:10:52.008Z,953.43
2018-03-25T12:11:52.013Z,953.40
2018-03-25T12:12:52.022Z,953.43
2018-03-25T12:13:52.021Z,953.43
2018-03-25T12:14:52.066Z,953.41
2018-03-25T12:15:52.029Z,953.38
2018-03-25T12:16:52.036Z,953.39
2018-03-25T12:17:52.044Z,953.42
2018-03-25T12:18:52.829Z,953.38
2018-03-25T12:19:52.060Z,953.33
2018-03-25T12:20:52.056Z,953.43
2018-03-25T12:21:52.056Z,953.40
2018-03-25T12:22:52.064Z,953.38
2018-03-25T12:23:52.062Z,953.40
2018-03-25T12:24:52.090Z,953.42
2018-03-25T12:25:52.070Z,953.34
2018-03-25T12:26:52.073Z,953.32
2018-03-25T12:27:54.816Z,953.33
2018-03-25T12:28:52.102Z,953.30